createdAt,value
2019-02-17T00:00:01.347Z,0.1
2019-02-17T05:48:01.615Z,0.1
2019-02-17T05:50:01.103Z,0.2
2019-02-17T05:51:06.103Z,0.3
2019-02-17T05:53:01.256Z,0.4
2019-02-17T05:54:01.112Z,0.5
2019-02-17T05:56:01.128Z,0.7
2019-02-17T05:57:01.973Z,0.8
2019-02-17T05:58:01.247Z,0.9
2019-02-17T05:59:01.106Z,1.1
2019-02-17T06:00:01.111Z,1.3
2019-02-17T06:01:03.536Z,1.5
2019-02-17T06:02:01.102Z,1.8
2019-02-17T06:03:01.249Z,2.0
2019-02-17T06:04:01.105Z,2.3
2019-02-17T06:05:01.099Z,2.7
2019-02-17T06:06:01.149Z,3.2
2019-02-17T06:07:01.104Z,3.8
2019-02-17T06:08:01.304Z,4.4
2019-02-17T06:09:01.106Z,5.1
2019-02-17T06:10:01.108Z,5.9
2019-02-17T06:11:01.141Z,6.8
2019-02-17T06:12:01.109Z,8.0
2019-02-17T06:13:01.255Z,9.3
2019-02-17T06:14:01.105Z,10.8
2019-02-17T06:15:01.108Z,12.5
2019-02-17T06:16:01.139Z,14.5
2019-02-17T06:17:01.107Z,16.8
2019-02-17T06:18:01.254Z,19.5
2019-02-17T06:19:01.111Z,22.8
2019-02-17T06:20:01.112Z,26.8
2019-02-17T06:21:01.138Z,31.5
2019-02-17T06:22:02.056Z,36.7
2019-02-17T06:23:01.258Z,43.1
2019-02-17T06:24:01.119Z,50.9
2019-02-17T06:25:01.139Z,59.9
2019-02-17T06:26:01.144Z,70.7
2019-02-17T06:27:01.152Z,84.3
2019-02-17T06:28:01.256Z,99.2
2019-02-17T06:29:01.082Z,115.1
2019-02-17T06:30:01.117Z,132.3
2019-02-17T06:31:01.144Z,150.1
2019-02-17T06:32:01.109Z,168.2
2019-02-17T06:33:01.261Z,187.4
2019-02-17T06:34:01.124Z,208.3
2019-02-17T06:35:01.109Z,229.5
2019-02-17T06:36:01.237Z,251.2
2019-02-17T06:37:01.121Z,275.2
2019-02-17T06:39:01.102Z,302.1
2019-02-17T06:40:01.104Z,332.0
2019-02-17T06:41:01.103Z,365.3
2019-02-17T06:42:06.095Z,400.6
2019-02-17T06:43:01.250Z,436.1
2019-02-17T06:44:01.077Z,472.9
2019-02-17T06:45:01.103Z,512.3
2019-02-17T06:46:01.101Z,554.6
2019-02-17T06:47:01.147Z,606.1
2019-02-17T06:48:01.285Z,668.3
2019-02-17T06:49:01.100Z,734.8
2019-02-17T06:50:01.109Z,802.6
2019-02-17T06:51:01.070Z,872.0
2019-02-17T06:52:01.109Z,945.9
2019-02-17T06:53:01.252Z,1024.5
2019-02-17T06:54:01.102Z,1108.0
2019-02-17T06:55:01.108Z,1194.4
2019-02-17T06:56:01.107Z,1282.7
2019-02-17T06:57:01.107Z,1375.3
2019-02-17T06:58:01.254Z,1469.0
2019-02-17T06:59:01.110Z,1566.2
2019-02-17T07:00:01.107Z,1671.1
2019-02-17T07:01:01.110Z,1780.2
2019-02-17T07:02:01.102Z,1888.6
2019-02-17T07:03:01.309Z,1998.1
2019-02-17T07:04:01.135Z,2109.9
2019-02-17T07:05:01.161Z,2225.9
2019-02-17T07:06:01.134Z,2344.8
2019-02-17T07:07:01.112Z,2479.7
2019-02-17T07:08:01.291Z,2620.8
2019-02-17T07:09:01.106Z,2760.3
2019-02-17T07:10:01.078Z,2896.7
2019-02-17T07:11:01.117Z,3036.2
2019-02-17T07:12:01.084Z,3179.3
2019-02-17T07:13:01.317Z,3327.1
2019-02-17T07:14:01.115Z,3486.0
2019-02-17T07:15:01.129Z,3650.6
2019-02-17T07:16:01.113Z,3801.2
2019-02-17T07:17:01.113Z,3956.8
2019-02-17T07:18:01.299Z,4131.7
2019-02-17T07:19:01.110Z,4298.5
2019-02-17T07:20:01.111Z,4462.9
2019-02-17T07:21:01.107Z,4647.9
2019-02-17T07:22:01.108Z,4811.2
2019-02-17T07:23:01.293Z,4949.8
2019-02-17T07:24:01.111Z,5091.4
2019-02-17T07:25:01.752Z,5253.3
2019-02-17T07:26:01.113Z,5402.1
2019-02-17T07:27:01.125Z,5534.2
2019-02-17T07:28:01.337Z,5647.3
2019-02-17T07:29:01.115Z,5745.1
2019-02-17T07:30:01.114Z,5813.6
2019-02-17T07:31:01.120Z,5867.7
2019-02-17T07:32:01.112Z,5898.6
2019-02-17T07:33:01.294Z,5902.3
2019-02-17T07:34:01.116Z,5904.3
2019-02-17T07:35:01.120Z,5908.5
2019-02-17T07:36:01.114Z,5906.9
2019-02-17T07:37:01.117Z,5917.1
2019-02-17T07:38:01.359Z,5952.2
2019-02-17T07:39:01.112Z,6010.7
2019-02-17T07:40:01.114Z,6083.0
2019-02-17T07:41:01.120Z,6214.3
2019-02-17T07:42:01.117Z,6401.4
2019-02-17T07:44:01.365Z,6680.5
2019-02-17T07:45:01.103Z,6971.7
2019-02-17T07:46:01.098Z,7346.1
2019-02-17T07:47:01.097Z,7790.7
2019-02-17T07:48:01.100Z,8280.5
2019-02-17T07:49:01.273Z,8789.2
2019-02-17T07:50:01.098Z,9350.2
2019-02-17T07:51:01.100Z,9932.9
2019-02-17T07:52:01.724Z,10497.3
2019-02-17T07:53:01.096Z,11044.4
2019-02-17T07:54:01.387Z,11615.9
2019-02-17T07:55:01.104Z,12178.1
2019-02-17T07:56:01.106Z,12735.3
2019-02-17T07:57:01.174Z,13275.3
2019-02-17T07:58:01.107Z,13791.9
2019-02-17T07:59:01.278Z,14257.1
2019-02-17T08:00:01.102Z,14750.7
2019-02-17T08:01:01.104Z,15203.7
2019-02-17T08:02:01.108Z,15662.9
2019-02-17T08:03:01.104Z,16141.9
2019-02-17T08:04:01.280Z,16645.8
2019-02-17T08:05:01.099Z,17110.0
2019-02-17T08:06:01.101Z,17522.0
2019-02-17T08:07:01.106Z,17939.9
2019-02-17T08:08:01.111Z,18393.3
2019-02-17T08:09:01.288Z,18841.4
2019-02-17T08:10:01.138Z,19329.9
2019-02-17T08:11:03.880Z,19871.7
2019-02-17T08:12:01.100Z,20483.2
2019-02-17T08:13:01.659Z,21087.1
2019-02-17T08:14:01.794Z,21655.7
2019-02-17T08:15:01.106Z,22142.2
2019-02-17T08:16:01.099Z,22564.3
2019-02-17T08:17:01.096Z,22956.1
2019-02-17T08:18:01.107Z,23343.5
2019-02-17T08:19:01.284Z,23712.7
2019-02-17T08:20:01.097Z,24128.5
2019-02-17T08:21:01.101Z,24600.1
2019-02-17T08:22:01.100Z,25107.3
2019-02-17T08:23:01.099Z,25676.5
2019-02-17T08:24:01.281Z,26260.5
2019-02-17T08:25:01.100Z,26705.8
2019-02-17T08:26:01.108Z,27012.1
2019-02-17T08:27:01.103Z,27175.1
2019-02-17T08:28:01.108Z,27310.3
2019-02-17T08:29:01.290Z,27513.2
2019-02-17T08:30:01.108Z,27796.1
2019-02-17T08:31:01.111Z,28084.4
2019-02-17T08:32:01.107Z,28354.5
2019-02-17T08:33:01.108Z,28615.1
2019-02-17T08:34:01.288Z,28881.1
2019-02-17T08:35:01.114Z,29251.7
2019-02-17T08:36:01.111Z,29754.0
2019-02-17T08:37:01.106Z,30242.8
2019-02-17T08:38:03.366Z,30563.7
2019-02-17T08:39:01.297Z,30812.5
2019-02-17T08:40:01.113Z,31224.1
2019-02-17T08:41:01.116Z,31725.3
2019-02-17T08:42:01.118Z,32310.4
2019-02-17T08:43:01.107Z,32968.9
2019-02-17T08:44:01.288Z,33562.3
2019-02-17T08:45:01.079Z,34120.1
2019-02-17T08:46:01.114Z,34687.6
2019-02-17T08:47:01.117Z,35269.7
2019-02-17T08:48:06.117Z,35878.4
2019-02-17T08:49:01.324Z,36460.7
2019-02-17T08:51:01.098Z,36748.5
2019-02-17T08:52:01.105Z,36865.1
2019-02-17T08:53:06.098Z,36906.4
2019-02-17T08:54:01.104Z,37065.8
2019-02-17T08:55:01.248Z,37314.7
2019-02-17T08:56:01.168Z,37492.9
2019-02-17T08:57:01.104Z,37671.1
2019-02-17T08:58:01.131Z,37760.8
2019-02-17T08:59:01.097Z,37837.9
2019-02-17T09:00:01.310Z,38027.8
2019-02-17T09:01:01.101Z,38303.9
2019-02-17T09:02:05.829Z,38634.9
2019-02-17T09:03:01.127Z,38884.9
2019-02-17T09:04:03.416Z,39139.7
2019-02-17T09:05:01.315Z,39516.3
2019-02-17T09:06:01.108Z,40136.3
2019-02-17T09:07:01.106Z,40741.3
2019-02-17T09:08:01.146Z,41404.5
2019-02-17T09:09:01.112Z,42132.9
2019-02-17T09:10:01.261Z,42988.1
2019-02-17T09:11:01.072Z,43967.6
2019-02-17T09:12:01.112Z,44963.3
2019-02-17T09:13:01.140Z,46066.9
2019-02-17T09:14:01.109Z,47126.7
2019-02-17T09:15:01.287Z,48116.5
2019-02-17T09:16:01.175Z,48929.7
2019-02-17T09:17:01.113Z,49597.0
2019-02-17T09:18:01.142Z,50288.4
2019-02-17T09:19:01.174Z,50859.2
2019-02-17T09:20:01.324Z,51387.5
2019-02-17T09:21:01.110Z,51799.9
2019-02-17T09:22:01.115Z,52215.9
2019-02-17T09:23:01.144Z,52798.9
2019-02-17T09:24:01.114Z,53533.9
2019-02-17T09:25:01.264Z,54072.1
2019-02-17T09:26:01.117Z,54374.2
2019-02-17T09:27:01.125Z,54731.1
2019-02-17T09:28:06.118Z,55240.2
2019-02-17T09:29:01.096Z,55734.0
2019-02-17T09:30:01.265Z,56198.7
2019-02-17T09:31:01.112Z,56878.6
2019-02-17T09:32:01.122Z,57711.3
2019-02-17T09:33:06.119Z,58439.7
2019-02-17T09:34:01.119Z,59259.3
2019-02-17T09:35:01.271Z,60122.5
2019-02-17T09:36:01.114Z,60990.4
2019-02-17T09:37:01.121Z,61876.2
2019-02-17T09:38:06.123Z,62582.1
2019-02-17T09:39:01.082Z,63028.4
2019-02-17T09:40:01.265Z,63479.5
2019-02-17T09:41:01.113Z,64023.9
2019-02-17T09:42:01.123Z,64460.1
2019-02-17T09:43:01.152Z,64676.2
2019-02-17T09:44:01.080Z,64898.3
2019-02-17T09:46:01.246Z,65108.5
2019-02-17T09:47:01.104Z,65189.2
2019-02-17T09:48:01.133Z,65227.1
2019-02-17T09:49:01.106Z,65403.1
2019-02-17T09:50:01.104Z,65535.0
2019-02-17T10:00:01.106Z,65535.0
2019-02-17T10:15:01.167Z,65535.0
2019-02-17T10:30:01.109Z,65535.0
2019-02-17T10:45:01.105Z,65535.0
2019-02-17T11:00:01.107Z,65535.0
2019-02-17T11:15:01.114Z,65535.0
2019-02-17T11:30:01.116Z,65535.0
2019-02-17T11:45:01.104Z,65535.0
2019-02-17T12:00:01.119Z,65535.0
2019-02-17T12:15:01.346Z,65535.0
2019-02-17T12:30:01.097Z,65535.0
2019-02-17T12:45:01.099Z,65535.0
2019-02-17T13:00:01.107Z,65535.0
2019-02-17T13:15:01.398Z,65535.0
2019-02-17T13:30:01.375Z,65535.0
2019-02-17T13:45:01.385Z,65535.0
2019-02-17T14:00:01.261Z,65535.0
2019-02-17T14:15:01.397Z,65535.0
2019-02-17T14:30:01.251Z,65535.0
2019-02-17T14:45:01.321Z,65535.0
2019-02-17T14:55:01.392Z,65140.2
2019-02-17T14:56:01.113Z,64280.3
2019-02-17T14:57:01.140Z,63360.0
2019-02-17T14:59:02.492Z,62357.9
2019-02-17T15:00:01.292Z,61321.0
2019-02-17T15:01:01.097Z,60244.7
2019-02-17T15:02:01.131Z,59113.2
2019-02-17T15:03:01.110Z,57912.0
2019-02-17T15:04:08.255Z,56589.9
2019-02-17T15:05:01.248Z,55199.9
2019-02-17T15:06:06.104Z,53806.5
2019-02-17T15:07:01.097Z,52413.6
2019-02-17T15:08:01.108Z,51008.3
2019-02-17T15:09:01.122Z,49586.4
2019-02-17T15:10:01.322Z,48133.4
2019-02-17T15:11:01.136Z,47035.6
2019-02-17T15:12:01.099Z,46350.8
2019-02-17T15:13:01.104Z,45639.3
2019-02-17T15:14:01.105Z,44941.0
2019-02-17T15:15:01.245Z,44253.3
2019-02-17T15:16:01.139Z,43584.1
2019-02-17T15:17:01.100Z,42933.7
2019-02-17T15:18:01.109Z,42308.0
2019-02-17T15:19:01.106Z,41750.0
2019-02-17T15:20:01.256Z,41141.3
2019-02-17T15:21:01.136Z,40403.9
2019-02-17T15:22:01.106Z,39728.7
2019-02-17T15:23:01.102Z,39063.9
2019-02-17T15:24:01.105Z,38391.1
2019-02-17T15:25:01.288Z,37712.3
2019-02-17T15:26:01.138Z,37021.9
2019-02-17T15:27:01.107Z,36307.7
2019-02-17T15:28:01.106Z,35581.7
2019-02-17T15:29:01.110Z,34879.0
2019-02-17T15:30:01.265Z,34083.9
2019-02-17T15:31:01.135Z,33242.1
2019-02-17T15:32:01.104Z,32442.6
2019-02-17T15:33:03.792Z,31685.9
2019-02-17T15:34:01.105Z,30969.5
2019-02-17T15:35:01.282Z,30353.3
2019-02-17T15:36:01.145Z,29836.4
2019-02-17T15:37:01.106Z,29223.9
2019-02-17T15:38:02.080Z,28594.9
2019-02-17T15:39:01.112Z,27979.8
2019-02-17T15:40:01.259Z,27388.4
2019-02-17T15:41:06.114Z,26829.7
2019-02-17T15:42:01.109Z,26321.1
2019-02-17T15:43:01.113Z,25871.3
2019-02-17T15:44:01.104Z,25405.5
2019-02-17T15:45:01.257Z,24967.9
2019-02-17T15:46:01.144Z,24497.3
2019-02-17T15:47:01.113Z,23957.8
2019-02-17T15:48:01.114Z,23395.7
2019-02-17T15:49:01.108Z,22831.7
2019-02-17T15:50:01.267Z,22265.6
2019-02-17T15:52:06.097Z,21621.7
2019-02-17T15:53:01.093Z,20941.2
2019-02-17T15:54:01.096Z,20216.1
2019-02-17T15:55:06.109Z,19442.9
2019-02-17T15:56:01.247Z,18638.4
2019-02-17T15:57:01.099Z,17814.4
2019-02-17T15:58:01.091Z,16982.1
2019-02-17T15:59:01.094Z,16157.0
2019-02-17T16:00:06.100Z,15362.0
2019-02-17T16:01:02.867Z,14626.0
2019-02-17T16:02:01.094Z,13964.0
2019-02-17T16:03:01.095Z,13340.1
2019-02-17T16:04:01.097Z,12716.7
2019-02-17T16:05:01.122Z,12084.5
2019-02-17T16:06:01.247Z,11449.9
2019-02-17T16:07:01.098Z,10904.4
2019-02-17T16:08:01.107Z,10407.2
2019-02-17T16:09:01.095Z,9952.9
2019-02-17T16:10:01.133Z,9537.7
2019-02-17T16:11:01.255Z,9148.1
2019-02-17T16:12:01.102Z,8778.0
2019-02-17T16:13:01.096Z,8424.0
2019-02-17T16:14:01.100Z,8085.0
2019-02-17T16:15:06.103Z,7759.9
2019-02-17T16:16:01.290Z,7447.1
2019-02-17T16:17:01.096Z,7144.5
2019-02-17T16:18:01.103Z,6851.1
2019-02-17T16:19:01.097Z,6566.1
2019-02-17T16:20:01.136Z,6289.3
2019-02-17T16:21:01.244Z,6020.5
2019-02-17T16:22:01.105Z,5758.1
2019-02-17T16:23:01.105Z,5502.2
2019-02-17T16:24:01.110Z,5252.3
2019-02-17T16:25:01.129Z,5008.0
2019-02-17T16:26:01.255Z,4768.9
2019-02-17T16:27:01.104Z,4534.6
2019-02-17T16:28:01.097Z,4304.8
2019-02-17T16:29:01.104Z,4079.9
2019-02-17T16:30:06.096Z,3860.1
2019-02-17T16:31:01.238Z,3645.6
2019-02-17T16:32:01.066Z,3436.3
2019-02-17T16:33:01.127Z,3232.9
2019-02-17T16:34:01.110Z,3036.4
2019-02-17T16:35:01.097Z,2846.5
2019-02-17T16:36:01.274Z,2663.0
2019-02-17T16:37:01.114Z,2486.0
2019-02-17T16:38:01.133Z,2315.8
2019-02-17T16:39:01.098Z,2152.5
2019-02-17T16:40:01.101Z,1996.4
2019-02-17T16:41:01.255Z,1847.5
2019-02-17T16:42:01.098Z,1706.1
2019-02-17T16:43:06.097Z,1572.1
2019-02-17T16:44:01.099Z,1445.4
2019-02-17T16:45:01.175Z,1325.5
2019-02-17T16:46:01.256Z,1212.3
2019-02-17T16:47:01.104Z,1105.5
2019-02-17T16:48:06.101Z,1004.4
2019-02-17T16:49:01.101Z,908.5
2019-02-17T16:50:01.103Z,818.2
2019-02-17T16:51:01.317Z,733.7
2019-02-17T16:52:01.107Z,655.4
2019-02-17T16:53:01.137Z,582.9
2019-02-17T16:54:01.110Z,516.1
2019-02-17T16:55:01.103Z,454.8
2019-02-17T16:56:01.254Z,398.7
2019-02-17T16:57:01.105Z,347.9
2019-02-17T16:58:06.113Z,301.9
2019-02-17T16:59:01.110Z,260.9
2019-02-17T17:01:01.246Z,224.1
2019-02-17T17:02:01.093Z,191.8
2019-02-17T17:03:01.133Z,163.9
2019-02-17T17:04:01.100Z,139.8
2019-02-17T17:05:01.097Z,119.1
2019-02-17T17:06:02.025Z,101.4
2019-02-17T17:07:01.195Z,86.2
2019-02-17T17:08:01.138Z,73.1
2019-02-17T17:09:01.097Z,61.7
2019-02-17T17:10:01.107Z,52.0
2019-02-17T17:11:01.248Z,43.7
2019-02-17T17:12:01.095Z,36.6
2019-02-17T17:13:01.122Z,30.5
2019-02-17T17:14:01.127Z,25.4
2019-02-17T17:15:01.096Z,21.0
2019-02-17T17:16:01.270Z,17.8
2019-02-17T17:17:01.112Z,15.1
2019-02-17T17:18:01.103Z,12.8
2019-02-17T17:19:01.134Z,10.9
2019-02-17T17:20:01.100Z,9.2
2019-02-17T17:21:01.252Z,7.8
2019-02-17T17:22:01.096Z,6.6
2019-02-17T17:23:01.098Z,5.6
2019-02-17T17:24:01.148Z,4.7
2019-02-17T17:25:01.103Z,4.0
2019-02-17T17:26:01.319Z,3.4
2019-02-17T17:27:01.106Z,2.9
2019-02-17T17:28:01.107Z,2.5
2019-02-17T17:29:01.133Z,2.2
2019-02-17T17:30:01.106Z,1.9
2019-02-17T17:31:02.273Z,1.7
2019-02-17T17:32:01.104Z,1.5
2019-02-17T17:33:06.110Z,1.4
2019-02-17T17:34:01.107Z,1.3
2019-02-17T17:35:01.110Z,1.2
2019-02-17T17:36:01.255Z,1.1
2019-02-17T17:38:01.138Z,1.0
2019-02-17T17:45:01.441Z,1.0
2019-02-17T17:46:01.096Z,0.9
2019-02-17T17:48:01.094Z,0.8
2019-02-17T17:54:01.139Z,0.7
2019-02-17T17:59:01.147Z,0.6
2019-02-17T18:00:01.678Z,0.5
2019-02-17T18:01:02.046Z,0.6
2019-02-17T18:02:01.099Z,0.7
2019-02-17T18:09:01.157Z,0.8
2019-02-17T18:12:01.385Z,0.7
2019-02-17T18:13:01.106Z,0.8
2019-02-17T18:14:01.156Z,0.9
2019-02-17T18:15:01.113Z,0.9
2019-02-17T18:28:01.424Z,1.0
2019-02-17T18:30:01.109Z,1.0
2019-02-17T18:45:01.318Z,1.0
2019-02-17T19:00:01.226Z,1.0
2019-02-17T19:15:01.342Z,1.0
2019-02-17T19:30:01.110Z,1.0
2019-02-17T19:45:01.186Z,1.0
2019-02-17T20:00:01.335Z,1.0
2019-02-17T20:15:01.230Z,1.0
2019-02-17T20:30:01.118Z,1.0
2019-02-17T20:45:06.179Z,1.0
2019-02-17T21:00:01.110Z,1.0
2019-02-17T21:15:01.192Z,1.0
2019-02-17T21:30:01.106Z,1.0
2019-02-17T21:45:01.102Z,1.0
2019-02-17T22:00:01.111Z,1.0
2019-02-17T22:15:01.390Z,1.0
2019-02-17T22:30:01.107Z,1.0
2019-02-17T22:45:01.176Z,1.0
2019-02-17T23:00:01.376Z,1.0
2019-02-17T23:15:01.400Z,1.0
2019-02-17T23:30:01.133Z,1.0
2019-02-17T23:45:01.250Z,1.0
